Time;durP1;ratioP1;P1;durP2;ratioP2;P2;SDS_P1;SDS_P2;PMS_P1;PMS_P2;Temp;Humidity;BMP_temperature;BMP_pressure;BME280_temperature;BME280_humidity;BME280_pressure;Samples;Min_cycle;Max_cycle;Signal;HPM_P1;HPM_P2
2023/05/14 00:01:47;;;;;;;29.15;18.15;;;;;;;;;;5013541;28;20548;-79
2023/05/14 00:04:13;;;;;;;31.73;18.30;;;;;;;;;;5015567;28;20055;-77
2023/05/14 00:06:40;;;;;;;29.77;18.42;;;;;;;;;;5013583;28;20022;-79
2023/05/14 00:09:06;;;;;;;36.65;20.33;;;;;;;;;;5013318;28;20117;-80
2023/05/14 00:11:32;;;;;;;33.20;19.65;;;;;;;;;;5013249;28;20103;-79
2023/05/14 00:13:58;;;;;;;32.92;18.65;;;;;;;;;;5012843;28;20042;-80
2023/05/14 00:16:24;;;;;;;28.52;18.30;;;;;;;;;;5013003;28;20026;-79
2023/05/14 00:18:50;;;;;;;35.65;20.02;;;;;;;;;;5012089;28;20398;-80
2023/05/14 00:21:16;;;;;;;30.88;19.23;;;;;;;;;;5012530;28;20154;-78
2023/05/14 00:23:42;;;;;;;33.92;20.17;;;;;;;;;;5010829;28;20146;-80
2023/05/14 00:26:08;;;;;;;36.15;19.85;;;;;;;;;;5012788;28;20041;-80
2023/05/14 00:28:34;;;;;;;30.35;18.40;;;;;;;;;;5012961;28;20105;-80
2023/05/14 00:31:00;;;;;;;33.78;19.75;;;;;;;;;;5012887;28;20406;-79
2023/05/14 00:33:26;;;;;;;34.55;20.17;;;;;;;;;;5012761;28;20072;-80
2023/05/14 00:35:52;;;;;;;33.80;20.80;;;;;;;;;;5011145;28;20026;-80
2023/05/14 00:38:18;;;;;;;34.65;19.92;;;;;;;;;;5012585;28;20034;-79
2023/05/14 00:40:49;;;;;;;30.40;19.90;;;;;;;;;;5012576;28;20025;-79
2023/05/14 00:43:16;;;;;;;35.45;19.35;;;;;;;;;;5012484;28;20018;-80
2023/05/14 00:45:42;;;;;;;32.00;18.75;;;;;;;;;;5012248;28;20466;-80
2023/05/14 00:48:08;;;;;;;31.70;18.77;;;;;;;;;;5012316;28;20389;-78
2023/05/14 00:50:34;;;;;;;30.48;19.35;;;;;;;;;;5011624;28;20061;-79
2023/05/14 00:53:00;;;;;;;32.95;19.98;;;;;;;;;;5012376;28;20064;-78
2023/05/14 00:55:29;;;;;;;31.88;19.60;;;;;;;;;;5012212;28;20026;-79
2023/05/14 00:57:57;;;;;;;31.13;17.85;;;;;;;;;;5011848;28;20022;-79
2023/05/14 01:00:23;;;;;;;30.60;18.08;;;;;;;;;;5012556;28;20030;-78
2023/05/14 01:02:49;;;;;;;29.48;18.77;;;;;;;;;;5012055;28;20079;-77
2023/05/14 01:05:15;;;;;;;30.75;18.70;;;;;;;;;;5012346;28;20022;-78
2023/05/14 01:07:41;;;;;;;28.92;17.83;;;;;;;;;;5011158;28;20470;-77
2023/05/14 01:10:15;;;;;;;27.25;16.58;;;;;;;;;;5011880;28;20541;-79
2023/05/14 01:12:59;;;;;;;27.70;16.42;;;;;;;;;;5011930;28;20034;-77
2023/05/14 01:15:28;;;;;;;30.27;16.65;;;;;;;;;;5011812;28;20087;-80
2023/05/14 01:17:56;;;;;;;26.27;16.65;;;;;;;;;;5010994;28;20087;-79
2023/05/14 01:20:22;;;;;;;28.65;17.40;;;;;;;;;;5011736;28;20033;-78
2023/05/14 01:22:48;;;;;;;25.08;17.35;;;;;;;;;;5011597;28;20030;-79
2023/05/14 01:25:14;;;;;;;28.05;17.65;;;;;;;;;;5010656;28;20083;-80
2023/05/14 01:27:44;;;;;;;28.45;17.75;;;;;;;;;;5011763;28;20026;-79
2023/05/14 01:30:15;;;;;;;32.10;18.85;;;;;;;;;;5011533;28;20033;-80
2023/05/14 01:32:42;;;;;;;31.83;18.75;;;;;;;;;;5011202;28;20121;-80
2023/05/14 01:35:09;;;;;;;31.38;18.45;;;;;;;;;;5011989;28;20080;-79
2023/05/14 01:37:36;;;;;;;30.98;18.15;;;;;;;;;;5011880;28;20029;-80
2023/05/14 01:40:02;;;;;;;29.80;17.83;;;;;;;;;;5010612;28;20474;-79
2023/05/14 01:42:28;;;;;;;32.42;18.75;;;;;;;;;;5011424;28;20101;-78
2023/05/14 01:44:55;;;;;;;30.70;18.45;;;;;;;;;;5011081;28;20113;-79
2023/05/14 01:47:21;;;;;;;28.70;18.50;;;;;;;;;;5011683;28;20101;-79
2023/05/14 01:49:47;;;;;;;28.13;17.73;;;;;;;;;;5011477;28;20030;-78
2023/05/14 01:52:13;;;;;;;30.60;19.35;;;;;;;;;;5012128;28;20084;-84
2023/05/14 01:54:39;;;;;;;31.17;19.17;;;;;;;;;;5011723;28;20410;-79
2023/05/14 01:57:05;;;;;;;33.42;18.58;;;;;;;;;;5010638;28;20018;-80
2023/05/14 01:59:31;;;;;;;27.55;17.85;;;;;;;;;;5012043;28;20026;-78
2023/05/14 02:01:57;;;;;;;31.13;19.05;;;;;;;;;;5011452;28;20045;-80
2023/05/14 02:04:23;;;;;;;32.67;19.88;;;;;;;;;;5011612;28;20045;-79
2023/05/14 02:06:50;;;;;;;35.80;19.77;;;;;;;;;;5011557;28;20160;-79
2023/05/14 02:09:16;;;;;;;29.85;18.75;;;;;;;;;;5011431;28;20029;-78
2023/05/14 02:11:42;;;;;;;30.90;19.45;;;;;;;;;;5011323;28;20033;-80
2023/05/14 02:14:08;;;;;;;34.42;20.10;;;;;;;;;;5010477;28;20052;-79
2023/05/14 02:16:34;;;;;;;32.45;19.90;;;;;;;;;;5011376;28;20033;-77
2023/05/14 02:19:00;;;;;;;32.95;19.50;;;;;;;;;;5010658;28;20455;-77
2023/05/14 02:21:26;;;;;;;34.42;19.70;;;;;;;;;;5011218;28;20022;-79
2023/05/14 02:23:52;;;;;;;31.08;19.48;;;;;;;;;;5010886;28;20052;-78
2023/05/14 02:26:18;;;;;;;34.53;19.13;;;;;;;;;;5010795;28;20100;-78
2023/05/14 02:28:44;;;;;;;33.03;19.58;;;;;;;;;;5011141;28;20160;-78
2023/05/14 02:31:10;;;;;;;29.23;18.95;;;;;;;;;;5011979;28;20544;-78
2023/05/14 02:33:36;;;;;;;33.88;20.65;;;;;;;;;;5014959;28;20042;-79
2023/05/14 02:36:03;;;;;;;33.72;20.17;;;;;;;;;;5015180;28;20053;-78
2023/05/14 02:38:29;;;;;;;33.20;19.27;;;;;;;;;;5014771;28;20389;-77
2023/05/14 02:40:55;;;;;;;32.47;19.27;;;;;;;;;;5014704;28;20482;-78
2023/05/14 02:43:21;;;;;;;30.50;19.15;;;;;;;;;;5014572;28;20033;-78
2023/05/14 02:45:47;;;;;;;30.52;18.88;;;;;;;;;;5014803;28;20022;-77
2023/05/14 02:48:13;;;;;;;32.10;19.23;;;;;;;;;;5014811;28;20030;-77
2023/05/14 02:50:39;;;;;;;31.13;19.52;;;;;;;;;;5013651;28;20163;-78
2023/05/14 02:53:06;;;;;;;30.70;19.33;;;;;;;;;;5014164;28;20552;-76
2023/05/14 02:55:32;;;;;;;37.42;19.95;;;;;;;;;;5014471;28;20037;-79
2023/05/14 02:57:58;;;;;;;33.88;20.60;;;;;;;;;;5014254;28;20021;-76
2023/05/14 03:00:24;;;;;;;32.50;19.95;;;;;;;;;;5014447;28;20018;-77
2023/05/14 03:02:50;;;;;;;35.85;20.92;;;;;;;;;;5013231;28;20033;-76
2023/05/14 03:05:17;;;;;;;31.42;19.60;;;;;;;;;;5012999;28;20114;-78
2023/05/14 03:07:43;;;;;;;32.42;20.33;;;;;;;;;;5013191;28;20022;-77
2023/05/14 03:10:09;;;;;;;33.50;19.45;;;;;;;;;;5014371;28;20308;-79
2023/05/14 03:12:35;;;;;;;35.45;19.50;;;;;;;;;;5013957;28;20037;-79
2023/05/14 03:15:01;;;;;;;36.72;20.95;;;;;;;;;;5014319;28;20018;-77
2023/05/14 03:17:27;;;;;;;34.05;20.50;;;;;;;;;;5013843;28;20022;-78
2023/05/14 03:19:53;;;;;;;35.50;20.30;;;;;;;;;;5014037;28;20196;-78
2023/05/14 03:22:19;;;;;;;40.40;20.55;;;;;;;;;;5012917;28;20022;-79
2023/05/14 03:24:45;;;;;;;35.70;20.75;;;;;;;;;;5013708;28;20133;-77
2023/05/14 03:27:11;;;;;;;38.75;20.00;;;;;;;;;;5013618;28;20097;-75
2023/05/14 03:29:37;;;;;;;36.72;20.00;;;;;;;;;;5013766;28;20026;-79
2023/05/14 03:32:03;;;;;;;38.28;21.33;;;;;;;;;;5013712;28;20026;-78
2023/05/14 03:34:29;;;;;;;36.60;21.05;;;;;;;;;;5013769;28;20386;-77
2023/05/14 03:36:55;;;;;;;43.80;22.63;;;;;;;;;;5013706;28;20435;-78
2023/05/14 03:39:21;;;;;;;37.20;20.90;;;;;;;;;;5012332;28;20540;-77
2023/05/14 03:41:48;;;;;;;35.95;20.98;;;;;;;;;;5012589;28;20021;-78
2023/05/14 03:44:14;;;;;;;37.58;22.08;;;;;;;;;;5013515;28;20148;-77
2023/05/14 03:46:40;;;;;;;42.78;22.70;;;;;;;;;;5013735;28;20022;-77
2023/05/14 03:49:07;;;;;;;40.95;21.98;;;;;;;;;;5013522;28;20519;-76
2023/05/14 03:51:33;;;;;;;37.90;22.50;;;;;;;;;;5013097;28;20026;-76
2023/05/14 03:53:59;;;;;;;41.15;22.00;;;;;;;;;;5013302;28;20029;-76
2023/05/14 03:56:25;;;;;;;37.50;21.98;;;;;;;;;;5011113;28;20022;-76
2023/05/14 03:58:52;;;;;;;37.78;21.45;;;;;;;;;;5013048;28;20101;-77
2023/05/14 04:01:18;;;;;;;44.95;22.58;;;;;;;;;;5013192;28;20030;-77
2023/05/14 04:03:44;;;;;;;48.40;22.98;;;;;;;;;;5013205;28;20025;-78
2023/05/14 04:06:10;;;;;;;45.63;24.88;;;;;;;;;;5013086;28;20036;-77
2023/05/14 04:08:36;;;;;;;48.03;24.27;;;;;;;;;;5013336;28;20029;-77
2023/05/14 04:11:02;;;;;;;46.67;25.15;;;;;;;;;;5012018;28;20026;-75
2023/05/14 04:13:28;;;;;;;45.22;23.35;;;;;;;;;;5012928;28;20120;-76
2023/05/14 04:15:54;;;;;;;50.65;24.50;;;;;;;;;;5012925;28;20064;-77
2023/05/14 04:18:20;;;;;;;45.10;24.27;;;;;;;;;;5011654;28;20109;-76
2023/05/14 04:20:46;;;;;;;46.00;24.17;;;;;;;;;;5011856;28;20029;-75
2023/05/14 04:23:13;;;;;;;48.90;24.42;;;;;;;;;;5012833;28;20026;-77
2023/05/14 04:25:39;;;;;;;47.75;24.92;;;;;;;;;;5012240;28;20414;-76
2023/05/14 04:28:05;;;;;;;49.63;26.10;;;;;;;;;;5012683;28;20022;-77
2023/05/14 04:30:31;;;;;;;47.75;25.75;;;;;;;;;;5012759;28;20022;-76
2023/05/14 04:32:57;;;;;;;50.55;25.45;;;;;;;;;;5012451;28;20056;-78
2023/05/14 04:35:24;;;;;;;51.80;26.02;;;;;;;;;;5013172;28;20022;-78
2023/05/14 04:37:50;;;;;;;51.92;25.80;;;;;;;;;;5011356;28;20092;-78
2023/05/14 04:40:16;;;;;;;46.70;24.35;;;;;;;;;;5012823;28;20018;-78
2023/05/14 04:42:42;;;;;;;47.25;25.25;;;;;;;;;;5011143;28;20021;-78
2023/05/14 04:45:09;;;;;;;50.67;24.80;;;;;;;;;;5012442;28;20034;-77
2023/05/14 04:47:35;;;;;;;46.80;24.35;;;;;;;;;;5012334;28;20026;-77
2023/05/14 04:50:01;;;;;;;48.50;25.23;;;;;;;;;;5012367;28;20100;-77
2023/05/14 04:52:27;;;;;;;47.40;24.77;;;;;;;;;;5012248;28;20108;-76
2023/05/14 04:54:53;;;;;;;48.10;24.42;;;;;;;;;;5011530;28;20497;-78
2023/05/14 04:57:19;;;;;;;47.92;25.65;;;;;;;;;;5012643;28;20105;-78
2023/05/14 04:59:46;;;;;;;51.08;24.02;;;;;;;;;;5012192;28;20029;-78
2023/05/14 05:02:12;;;;;;;52.78;26.85;;;;;;;;;;5012417;28;20033;-77
2023/05/14 05:04:38;;;;;;;53.45;25.42;;;;;;;;;;5012269;28;20088;-77
2023/05/14 05:07:04;;;;;;;48.15;23.63;;;;;;;;;;5012062;28;20121;-78
2023/05/14 05:09:31;;;;;;;50.13;24.67;;;;;;;;;;5012139;28;20054;-76
2023/05/14 05:11:57;;;;;;;54.35;26.80;;;;;;;;;;5010559;28;20080;-78
2023/05/14 05:14:23;;;;;;;52.58;26.40;;;;;;;;;;5011980;28;20374;-76
2023/05/14 05:16:50;;;;;;;48.08;23.58;;;;;;;;;;5012015;28;20033;-77
2023/05/14 05:19:16;;;;;;;45.63;23.85;;;;;;;;;;5011895;28;20033;-76
2023/05/14 05:21:42;;;;;;;53.72;24.35;;;;;;;;;;5011943;28;20087;-76
2023/05/14 05:24:08;;;;;;;46.35;24.05;;;;;;;;;;5011302;28;20061;-79
2023/05/14 05:26:37;;;;;;;53.00;24.55;;;;;;;;;;5011684;28;20030;-77
2023/05/14 05:29:04;;;;;;;49.53;24.35;;;;;;;;;;5010675;28;20096;-76
2023/05/14 05:31:30;;;;;;;50.72;25.63;;;;;;;;;;5011804;28;20025;-77
2023/05/14 05:33:58;;;;;;;51.28;23.80;;;;;;;;;;5011367;28;20034;-77
2023/05/14 05:36:24;;;;;;;48.55;23.75;;;;;;;;;;5011687;28;20026;-76
2023/05/14 05:38:50;;;;;;;51.42;23.98;;;;;;;;;;5011592;28;20029;-77
2023/05/14 05:41:16;;;;;;;47.35;23.35;;;;;;;;;;5010420;28;20026;-77
2023/05/14 05:43:42;;;;;;;49.35;25.27;;;;;;;;;;5010988;28;20072;-77
2023/05/14 05:46:08;;;;;;;50.40;25.33;;;;;;;;;;5010399;28;20029;-78
2023/05/14 05:48:34;;;;;;;44.50;22.05;;;;;;;;;;5011567;28;20026;-79
2023/05/14 05:51:00;;;;;;;43.47;22.75;;;;;;;;;;5010734;28;20024;-78
2023/05/14 05:53:27;;;;;;;42.92;22.27;;;;;;;;;;5011087;28;20225;-78
2023/05/14 05:55:53;;;;;;;43.28;22.85;;;;;;;;;;5011328;28;20378;-77
2023/05/14 05:58:19;;;;;;;43.60;22.73;;;;;;;;;;5011125;28;20026;-79
2023/05/14 06:00:46;;;;;;;47.35;22.77;;;;;;;;;;5005239;28;20410;-78
2023/05/14 06:03:20;;;;;;;42.53;22.80;;;;;;;;;;5003622;28;20033;-76
2023/05/14 06:05:46;;;;;;;42.45;22.90;;;;;;;;;;5014173;28;20022;-77
2023/05/14 06:08:12;;;;;;;42.08;22.40;;;;;;;;;;5013064;28;20057;-76
2023/05/14 06:10:38;;;;;;;47.47;23.75;;;;;;;;;;5015142;28;20022;-77
2023/05/14 06:13:05;;;;;;;43.38;21.80;;;;;;;;;;5015080;28;20033;-76
2023/05/14 06:15:31;;;;;;;47.45;23.08;;;;;;;;;;5015017;28;20022;-76
2023/05/14 06:17:57;;;;;;;48.38;24.88;;;;;;;;;;5011744;28;20037;-76
2023/05/14 06:20:23;;;;;;;57.20;23.38;;;;;;;;;;5014613;28;20273;-77
2023/05/14 06:22:49;;;;;;;47.63;23.52;;;;;;;;;;5007769;28;20101;-76
2023/05/14 06:25:17;;;;;;;45.67;22.75;;;;;;;;;;5013610;28;20065;-79
2023/05/14 06:27:43;;;;;;;41.42;21.70;;;;;;;;;;5013836;28;20030;-76
2023/05/14 06:30:10;;;;;;;43.55;21.92;;;;;;;;;;5015011;28;20026;-76
2023/05/14 06:32:36;;;;;;;41.63;21.73;;;;;;;;;;5014575;28;20119;-75
2023/05/14 06:35:02;;;;;;;45.13;22.58;;;;;;;;;;5013667;28;20097;-77
2023/05/14 06:37:29;;;;;;;46.40;22.25;;;;;;;;;;5011411;28;20034;-76
2023/05/14 06:39:55;;;;;;;40.63;22.02;;;;;;;;;;5014845;28;20032;-76
2023/05/14 06:42:21;;;;;;;43.25;20.70;;;;;;;;;;5014224;28;20022;-77
2023/05/14 06:44:47;;;;;;;42.10;22.00;;;;;;;;;;5014612;28;20097;-76
2023/05/14 06:47:13;;;;;;;40.65;21.40;;;;;;;;;;5014755;28;20022;-76
2023/05/14 06:49:39;;;;;;;40.30;22.15;;;;;;;;;;5013830;28;20036;-75
2023/05/14 06:52:05;;;;;;;43.72;21.08;;;;;;;;;;5012141;28;20040;-75
2023/05/14 06:54:31;;;;;;;38.88;21.63;;;;;;;;;;5011791;28;20560;-78
2023/05/14 06:56:57;;;;;;;41.13;21.63;;;;;;;;;;5012827;28;20033;-73
2023/05/14 06:59:23;;;;;;;44.13;22.48;;;;;;;;;;5011733;28;20026;-75
2023/05/14 07:01:49;;;;;;;42.30;21.63;;;;;;;;;;5014087;28;20402;-76
2023/05/14 07:04:15;;;;;;;44.03;22.27;;;;;;;;;;5013850;28;21584;-76
2023/05/14 07:06:41;;;;;;;40.72;21.02;;;;;;;;;;5012494;28;20030;-77
2023/05/14 07:09:07;;;;;;;45.38;22.17;;;;;;;;;;5012710;28;20032;-75
2023/05/14 07:11:34;;;;;;;45.35;21.95;;;;;;;;;;5011828;28;20033;-76
2023/05/14 07:14:00;;;;;;;43.60;22.05;;;;;;;;;;5013234;28;20597;-76
2023/05/14 07:16:26;;;;;;;43.28;22.52;;;;;;;;;;5012460;28;20025;-75
2023/05/14 07:18:52;;;;;;;38.85;21.13;;;;;;;;;;5011915;28;20026;-76
2023/05/14 07:21:18;;;;;;;43.53;22.98;;;;;;;;;;4994559;28;20117;-76
2023/05/14 07:23:44;;;;;;;38.63;21.77;;;;;;;;;;4993178;28;20052;-75
2023/05/14 07:26:10;;;;;;;38.33;20.80;;;;;;;;;;4994446;28;20130;-76
2023/05/14 07:28:36;;;;;;;40.03;20.58;;;;;;;;;;4993150;28;20545;-75
2023/05/14 07:31:07;;;;;;;40.63;20.70;;;;;;;;;;5010457;28;20064;-75
2023/05/14 07:33:33;;;;;;;36.38;20.10;;;;;;;;;;5012871;28;20281;-69
2023/05/14 07:35:59;;;;;;;39.58;21.00;;;;;;;;;;5011863;28;20050;-71
2023/05/14 07:38:25;;;;;;;39.00;21.55;;;;;;;;;;5013277;28;20034;-76
2023/05/14 07:40:51;;;;;;;39.42;21.60;;;;;;;;;;5013774;28;20033;-79
2023/05/14 07:43:17;;;;;;;41.88;21.45;;;;;;;;;;5013385;28;20079;-76
2023/05/14 07:45:43;;;;;;;37.45;21.48;;;;;;;;;;5013478;28;20030;-78
2023/05/14 07:48:10;;;;;;;39.00;19.77;;;;;;;;;;5011202;28;20022;-77
2023/05/14 07:50:36;;;;;;;34.78;19.50;;;;;;;;;;5012413;28;20022;-79
2023/05/14 07:53:02;;;;;;;35.08;20.42;;;;;;;;;;5013160;28;20391;-78
2023/05/14 07:55:28;;;;;;;36.13;20.38;;;;;;;;;;5012004;28;20021;-81
2023/05/14 07:57:54;;;;;;;36.53;19.65;;;;;;;;;;5014533;28;20652;-80
2023/05/14 08:00:20;;;;;;;32.55;19.13;;;;;;;;;;5011967;28;20026;-83
2023/05/14 08:02:47;;;;;;;35.30;20.27;;;;;;;;;;5008918;28;20034;-81
2023/05/14 08:05:14;;;;;;;30.50;18.50;;;;;;;;;;5011908;28;20471;-80
2023/05/14 08:07:40;;;;;;;33.47;18.83;;;;;;;;;;5013256;28;20022;-76
2023/05/14 08:10:06;;;;;;;33.42;19.80;;;;;;;;;;5013063;28;20037;-78
2023/05/14 08:12:33;;;;;;;33.05;19.85;;;;;;;;;;5012463;28;20026;-81
2023/05/14 08:14:59;;;;;;;35.25;19.77;;;;;;;;;;5009008;28;20106;-81
2023/05/14 08:17:25;;;;;;;32.00;19.63;;;;;;;;;;5008349;28;20112;-81
2023/05/14 08:19:51;;;;;;;31.50;19.25;;;;;;;;;;5010398;28;20117;-78
2023/05/14 08:22:17;;;;;;;35.63;19.63;;;;;;;;;;5011542;28;20053;-78
2023/05/14 08:24:43;;;;;;;33.22;19.52;;;;;;;;;;5011724;28;20077;-71
2023/05/14 08:27:09;;;;;;;33.05;19.60;;;;;;;;;;5009968;28;20053;-71
2023/05/14 08:29:35;;;;;;;29.30;18.63;;;;;;;;;;5011706;28;20033;-69
2023/05/14 08:32:01;;;;;;;33.13;20.42;;;;;;;;;;5008959;28;20536;-70
2023/05/14 08:34:27;;;;;;;32.53;19.05;;;;;;;;;;4999719;28;20038;-71
2023/05/14 08:36:54;;;;;;;32.53;19.77;;;;;;;;;;5007093;28;20512;-69
2023/05/14 08:39:20;;;;;;;36.13;20.42;;;;;;;;;;5012263;28;20048;-70
2023/05/14 08:41:46;;;;;;;31.75;20.13;;;;;;;;;;5012536;28;20474;-71
2023/05/14 08:44:13;;;;;;;31.15;19.70;;;;;;;;;;5010383;28;20109;-72
2023/05/14 08:46:39;;;;;;;30.33;18.70;;;;;;;;;;5011308;28;20093;-70
2023/05/14 08:49:17;;;;;;;33.00;20.67;;;;;;;;;;5011502;28;20100;-71
2023/05/14 08:51:47;;;;;;;33.28;19.58;;;;;;;;;;5010173;28;20372;-72
2023/05/14 08:54:15;;;;;;;32.65;19.20;;;;;;;;;;5009693;28;20038;-70
2023/05/14 08:56:43;;;;;;;29.52;18.25;;;;;;;;;;5010659;28;20076;-74
2023/05/14 08:59:10;;;;;;;35.63;20.08;;;;;;;;;;5011039;28;20037;-73
2023/05/14 09:01:38;;;;;;;30.60;18.73;;;;;;;;;;5010099;28;20018;-70
2023/05/14 09:04:07;;;;;;;33.67;19.75;;;;;;;;;;5010182;28;20117;-72
2023/05/14 09:06:36;;;;;;;31.80;19.88;;;;;;;;;;5012294;28;20632;-69
2023/05/14 09:09:02;;;;;;;29.13;19.13;;;;;;;;;;5012259;28;20037;-70
2023/05/14 09:11:28;;;;;;;35.75;20.80;;;;;;;;;;5009931;28;20498;-74
2023/05/14 09:13:54;;;;;;;32.45;18.73;;;;;;;;;;5010062;28;20116;-69
2023/05/14 09:16:21;;;;;;;30.33;18.15;;;;;;;;;;5012006;28;20060;-70
2023/05/14 09:18:47;;;;;;;31.48;18.50;;;;;;;;;;5011782;28;20030;-61
2023/05/14 09:21:17;;;;;;;34.13;19.33;;;;;;;;;;5012113;28;20022;-62
2023/05/14 09:23:44;;;;;;;32.08;18.33;;;;;;;;;;5011372;28;20459;-63
2023/05/14 09:26:11;;;;;;;30.50;18.73;;;;;;;;;;5008748;28;20025;-65
2023/05/14 09:28:43;;;;;;;30.98;19.35;;;;;;;;;;5010798;28;20030;-65
2023/05/14 09:31:09;;;;;;;30.55;18.77;;;;;;;;;;5008426;28;20034;-64
2023/05/14 09:33:35;;;;;;;30.63;17.27;;;;;;;;;;5011490;28;20034;-64
2023/05/14 09:36:02;;;;;;;32.53;19.35;;;;;;;;;;5010909;28;20022;-63
2023/05/14 09:38:31;;;;;;;30.20;18.48;;;;;;;;;;5006962;28;20034;-63
2023/05/14 09:40:58;;;;;;;30.08;19.42;;;;;;;;;;5004932;28;20026;-63
2023/05/14 09:43:24;;;;;;;35.20;19.30;;;;;;;;;;4997005;28;20025;-63
2023/05/14 09:45:51;;;;;;;32.33;18.58;;;;;;;;;;5011294;28;20471;-65
2023/05/14 09:48:17;;;;;;;35.38;20.80;;;;;;;;;;5007653;28;20041;-63
2023/05/14 09:50:44;;;;;;;34.08;20.50;;;;;;;;;;5011413;28;20022;-64
2023/05/14 09:53:10;;;;;;;31.40;18.15;;;;;;;;;;5009265;28;20038;-64
2023/05/14 09:55:36;;;;;;;35.40;19.60;;;;;;;;;;5006341;28;20616;-63
2023/05/14 09:58:02;;;;;;;36.20;19.60;;;;;;;;;;5008277;28;20101;-64
2023/05/14 10:00:29;;;;;;;32.70;18.92;;;;;;;;;;5008794;28;20068;-64
2023/05/14 10:02:57;;;;;;;36.53;20.02;;;;;;;;;;5011427;28;20045;-64
2023/05/14 10:05:23;;;;;;;36.83;20.92;;;;;;;;;;5010384;28;20034;-63
2023/05/14 10:07:50;;;;;;;36.65;19.52;;;;;;;;;;5010844;28;20057;-63
2023/05/14 10:10:18;;;;;;;33.75;20.17;;;;;;;;;;5013182;28;20130;-63
2023/05/14 10:13:11;;;;;;;32.05;19.33;;;;;;;;;;5007934;28;20449;-62
2023/05/14 10:15:37;;;;;;;;;;;;;;;;;;5005594;28;20041;-63
2023/05/14 10:18:06;;;;;;;34.78;19.10;;;;;;;;;;5008839;28;19931;-63
2023/05/14 10:20:33;;;;;;;34.63;19.25;;;;;;;;;;5008799;28;20105;-64
2023/05/14 10:22:59;;;;;;;33.60;18.55;;;;;;;;;;5008427;28;20099;-63
2023/05/14 10:25:25;;;;;;;31.40;18.52;;;;;;;;;;5008980;28;20498;-61
2023/05/14 10:27:51;;;;;;;33.75;19.77;;;;;;;;;;5008806;28;20061;-64
2023/05/14 10:30:21;;;;;;;36.80;20.45;;;;;;;;;;5011201;28;20037;-64
2023/05/14 10:32:47;;;;;;;34.45;18.98;;;;;;;;;;5009969;28;20074;-64
2023/05/14 10:35:19;;;;;;;31.90;18.65;;;;;;;;;;5008611;28;20509;-64
2023/05/14 10:37:45;;;;;;;33.10;18.08;;;;;;;;;;5011051;28;20076;-65
2023/05/14 10:40:12;;;;;;;32.00;19.15;;;;;;;;;;5011130;28;20030;-63
2023/05/14 10:42:39;;;;;;;36.72;19.92;;;;;;;;;;5009348;28;20034;-65
2023/05/14 10:45:07;;;;;;;31.83;19.30;;;;;;;;;;5009383;28;20113;-65
2023/05/14 10:47:36;;;;;;;34.33;19.63;;;;;;;;;;5009125;28;20421;-65
2023/05/14 10:50:03;;;;;;;34.22;19.92;;;;;;;;;;5007929;28;20022;-66
2023/05/14 10:52:30;;;;;;;40.53;20.27;;;;;;;;;;5013129;28;20326;-65
2023/05/14 10:55:01;;;;;;;36.58;19.98;;;;;;;;;;5013015;28;20433;-65
2023/05/14 10:57:28;;;;;;;35.08;19.83;;;;;;;;;;5011585;28;20479;-65
2023/05/14 10:59:58;;;;;;;34.28;19.17;;;;;;;;;;5012604;28;20147;-64
2023/05/14 11:02:29;;;;;;;33.35;19.30;;;;;;;;;;4994727;28;20023;-63
2023/05/14 11:05:04;;;;;;;36.25;19.65;;;;;;;;;;5005255;28;20026;-64
2023/05/14 11:07:32;;;;;;;33.80;19.75;;;;;;;;;;5013925;28;20014;-70
2023/05/14 11:10:03;;;;;;;32.47;19.02;;;;;;;;;;5014238;28;20113;-69
2023/05/14 11:12:29;;;;;;;32.78;19.10;;;;;;;;;;5014237;28;20022;-69
2023/05/14 11:14:58;;;;;;;31.90;19.88;;;;;;;;;;5014188;28;20578;-69
2023/05/14 11:17:28;;;;;;;32.22;18.90;;;;;;;;;;5014158;28;20462;-70
2023/05/14 11:19:55;;;;;;;36.42;21.98;;;;;;;;;;5013102;28;20040;-70
2023/05/14 11:22:21;;;;;;;34.67;20.88;;;;;;;;;;5011401;28;20065;-71
2023/05/14 11:24:47;;;;;;;32.53;18.88;;;;;;;;;;5012911;28;20507;-70
2023/05/14 11:27:13;;;;;;;35.17;19.55;;;;;;;;;;5013904;28;20026;-70
2023/05/14 11:29:43;;;;;;;36.15;20.05;;;;;;;;;;5013127;28;20068;-70
2023/05/14 11:32:09;;;;;;;33.80;18.90;;;;;;;;;;5013311;28;20104;-71
2023/05/14 11:34:36;;;;;;;32.30;19.52;;;;;;;;;;5013977;28;20041;-70
2023/05/14 11:37:03;;;;;;;33.53;20.05;;;;;;;;;;5013622;28;20030;-70
2023/05/14 11:39:30;;;;;;;36.30;19.75;;;;;;;;;;5012798;28;20034;-70
2023/05/14 11:41:57;;;;;;;35.20;20.10;;;;;;;;;;5012235;28;20029;-71
2023/05/14 11:44:23;;;;;;;34.92;19.33;;;;;;;;;;5013497;28;20029;-70
2023/05/14 11:46:56;;;;;;;37.13;21.10;;;;;;;;;;5013865;28;20160;-70
2023/05/14 11:49:23;;;;;;;37.78;20.80;;;;;;;;;;5013623;28;20644;-71
2023/05/14 11:51:49;;;;;;;37.13;20.52;;;;;;;;;;5013570;28;20025;-69
2023/05/14 11:54:15;;;;;;;37.13;20.55;;;;;;;;;;5011776;28;20542;-69
2023/05/14 11:56:41;;;;;;;37.05;20.85;;;;;;;;;;5013407;28;20045;-69
2023/05/14 11:59:07;;;;;;;40.03;21.02;;;;;;;;;;5013349;28;20029;-69
2023/05/14 12:01:37;;;;;;;39.78;21.67;;;;;;;;;;5013186;28;20025;-70
2023/05/14 12:04:04;;;;;;;33.97;20.63;;;;;;;;;;5012801;28;20021;-70
2023/05/14 12:06:31;;;;;;;35.03;22.73;;;;;;;;;;5008391;28;20062;-69
2023/05/14 12:08:57;;;;;;;37.03;22.73;;;;;;;;;;5006203;28;20029;-68
2023/05/14 12:11:23;;;;;;;38.08;21.85;;;;;;;;;;5011699;28;20040;-68
2023/05/14 12:13:49;;;;;;;41.97;25.63;;;;;;;;;;5009622;28;20429;-69
2023/05/14 12:16:16;;;;;;;38.85;22.60;;;;;;;;;;5008872;28;20673;-69
2023/05/14 12:18:42;;;;;;;36.28;22.15;;;;;;;;;;5018070;28;20071;-69
2023/05/14 12:21:10;;;;;;;38.25;21.23;;;;;;;;;;5032783;28;20025;-70
2023/05/14 12:23:38;;;;;;;37.58;21.52;;;;;;;;;;5020084;28;20040;-69
2023/05/14 12:26:08;;;;;;;37.30;21.40;;;;;;;;;;5011760;28;20030;-70
2023/05/14 12:28:35;;;;;;;42.50;23.30;;;;;;;;;;5002076;28;20030;-69
2023/05/14 12:31:01;;;;;;;41.58;23.25;;;;;;;;;;5032719;28;20048;-69
2023/05/14 12:33:27;;;;;;;39.22;22.55;;;;;;;;;;5021422;28;20069;-70
2023/05/14 12:36:00;;;;;;;38.20;22.27;;;;;;;;;;5012576;28;20370;-70
2023/05/14 12:38:26;;;;;;;39.17;22.58;;;;;;;;;;5010555;28;20029;-70
2023/05/14 12:40:52;;;;;;;34.75;21.80;;;;;;;;;;5011296;28;20030;-69
2023/05/14 12:43:18;;;;;;;37.05;22.35;;;;;;;;;;5011592;28;20026;-70
2023/05/14 12:45:44;;;;;;;36.78;21.63;;;;;;;;;;5012576;28;20069;-70
2023/05/14 12:48:11;;;;;;;43.92;24.02;;;;;;;;;;5011804;28;20106;-71
2023/05/14 12:50:38;;;;;;;38.10;21.88;;;;;;;;;;5012396;28;20109;-70
2023/05/14 12:53:04;;;;;;;38.10;21.90;;;;;;;;;;5011356;28;20029;-70
2023/05/14 12:55:30;;;;;;;38.00;21.80;;;;;;;;;;4997532;28;20045;-70
2023/05/14 12:57:56;;;;;;;34.22;19.58;;;;;;;;;;5006259;28;20026;-70
2023/05/14 13:00:22;;;;;;;35.28;20.38;;;;;;;;;;5011243;28;20022;-69
2023/05/14 13:02:49;;;;;;;33.20;19.30;;;;;;;;;;5011032;28;20133;-71
2023/05/14 13:05:15;;;;;;;33.72;19.15;;;;;;;;;;5011619;28;20014;-71
2023/05/14 13:07:41;;;;;;;38.28;21.10;;;;;;;;;;5010260;28;20036;-63
2023/05/14 13:10:07;;;;;;;35.88;19.92;;;;;;;;;;5010060;28;20025;-61
2023/05/14 13:12:33;;;;;;;33.60;19.65;;;;;;;;;;4999871;28;20081;-62
2023/05/14 13:14:59;;;;;;;34.95;19.75;;;;;;;;;;4991923;28;20053;-62
2023/05/14 13:17:25;;;;;;;34.78;20.83;;;;;;;;;;4999457;28;20364;-63
2023/05/14 13:19:51;;;;;;;37.78;21.42;;;;;;;;;;5009704;28;20038;-60
2023/05/14 13:22:18;;;;;;;35.13;19.25;;;;;;;;;;5011068;28;20446;-61
2023/05/14 13:24:44;;;;;;;36.05;20.85;;;;;;;;;;5011239;28;20057;-61
2023/05/14 13:27:10;;;;;;;33.65;19.98;;;;;;;;;;5009302;28;20049;-60
2023/05/14 13:29:37;;;;;;;31.58;18.98;;;;;;;;;;5010266;28;20391;-61
2023/05/14 13:32:03;;;;;;;37.65;20.15;;;;;;;;;;5011523;28;20018;-60
2023/05/14 13:34:29;;;;;;;38.47;21.35;;;;;;;;;;5010482;28;21236;-62
2023/05/14 13:36:55;;;;;;;37.72;21.60;;;;;;;;;;5010570;28;20395;-61
2023/05/14 13:39:25;;;;;;;36.92;20.38;;;;;;;;;;5011415;28;20041;-61
2023/05/14 13:41:55;;;;;;;41.00;20.98;;;;;;;;;;5008864;28;20037;-60
2023/05/14 13:44:21;;;;;;;31.02;19.92;;;;;;;;;;5010445;28;20022;-60
2023/05/14 13:46:47;;;;;;;35.08;21.25;;;;;;;;;;5010265;28;20117;-61
2023/05/14 13:49:13;;;;;;;32.45;20.27;;;;;;;;;;5011351;28;20105;-67
2023/05/14 13:51:39;;;;;;;31.17;20.35;;;;;;;;;;5010799;28;20030;-62
2023/05/14 13:54:06;;;;;;;32.80;21.23;;;;;;;;;;5010138;28;20038;-60
2023/05/14 13:56:32;;;;;;;28.90;20.70;;;;;;;;;;5011594;28;20105;-60
2023/05/14 13:58:58;;;;;;;28.08;19.25;;;;;;;;;;5011527;28;20022;-61
2023/05/14 14:01:24;;;;;;;35.00;21.65;;;;;;;;;;5011146;28;20049;-61
2023/05/14 14:03:50;;;;;;;32.05;19.98;;;;;;;;;;5011016;28;20121;-60
2023/05/14 14:06:16;;;;;;;31.88;19.23;;;;;;;;;;5011184;28;20461;-61
2023/05/14 14:08:42;;;;;;;31.27;20.75;;;;;;;;;;5011158;28;20022;-61
2023/05/14 14:11:08;;;;;;;31.83;21.08;;;;;;;;;;5010134;28;20034;-61
2023/05/14 14:13:35;;;;;;;30.77;20.35;;;;;;;;;;5010543;28;20042;-60
2023/05/14 14:16:02;;;;;;;34.55;21.13;;;;;;;;;;5009743;28;20109;-60